Time;durP1;ratioP1;P1;durP2;ratioP2;P2;SDS_P1;SDS_P2;PMS_P1;PMS_P2;Temp;Humidity;BMP_temperature;BMP_pressure;BME280_temperature;BME280_humidity;BME280_pressure;Samples;Min_cycle;Max_cycle;Signal;HPM_P1;HPM_P2
2021/08/26 00:00:56;;;;;;;8.68;6.40;;;;;;;;;;4452712;32;20341;-52
2021/08/26 00:06:06;;;;;;;7.05;5.95;;;;;;;;;;4461898;32;20230;-52
2021/08/26 00:08:32;;;;;;;12.98;6.47;;;;;;;;;;4464505;32;20247;-51
2021/08/26 00:10:58;;;;;;;6.62;5.37;;;;;;;;;;4459899;32;20393;-52
2021/08/26 00:13:24;;;;;;;9.90;6.65;;;;;;;;;;4462704;32;20306;-51
2021/08/26 00:15:50;;;;;;;13.70;6.18;;;;;;;;;;4461338;32;20238;-51
2021/08/26 00:18:18;;;;;;;10.55;7.03;;;;;;;;;;4456197;32;20262;-51
2021/08/26 00:20:47;;;;;;;9.65;5.45;;;;;;;;;;4454942;32;20479;-52
2021/08/26 00:23:13;;;;;;;8.00;6.05;;;;;;;;;;4449148;32;20271;-51
2021/08/26 00:25:38;;;;;;;8.90;6.62;;;;;;;;;;4462845;32;20212;-51
2021/08/26 00:28:04;;;;;;;9.75;6.50;;;;;;;;;;4464695;32;20232;-52
2021/08/26 00:30:30;;;;;;;9.32;6.37;;;;;;;;;;4464360;32;20263;-51
2021/08/26 00:32:55;;;;;;;13.90;7.37;;;;;;;;;;4453854;32;20344;-51
2021/08/26 00:35:21;;;;;;;9.55;6.43;;;;;;;;;;4454826;32;20224;-51
2021/08/26 00:37:46;;;;;;;8.80;6.00;;;;;;;;;;4464126;32;20298;-51
2021/08/26 00:40:12;;;;;;;9.52;8.10;;;;;;;;;;4457426;32;20326;-51
2021/08/26 00:42:38;;;;;;;35.70;26.05;;;;;;;;;;4460568;32;20303;-51
2021/08/26 00:45:05;;;;;;;30.75;25.35;;;;;;;;;;4459921;32;20277;-51
2021/08/26 00:47:31;;;;;;;29.58;23.70;;;;;;;;;;4458046;32;20661;-52
2021/08/26 00:49:56;;;;;;;20.08;16.00;;;;;;;;;;4459991;32;20313;-50
2021/08/26 00:52:25;;;;;;;23.65;16.50;;;;;;;;;;4455292;32;20283;-52
2021/08/26 00:55:00;;;;;;;17.50;14.68;;;;;;;;;;4463398;32;20554;-51
2021/08/26 00:57:25;;;;;;;16.92;12.63;;;;;;;;;;4463164;32;20211;-51
2021/08/26 00:59:55;;;;;;;15.48;12.25;;;;;;;;;;4454408;32;20298;-51
2021/08/26 01:02:41;;;;;;;17.55;9.63;;;;;;;;;;4453718;32;20219;-52
2021/08/26 01:05:17;;;;;;;10.00;7.47;;;;;;;;;;4463946;32;20991;-51
2021/08/26 01:07:57;;;;;;;10.95;6.87;;;;;;;;;;4464174;32;20386;-51
2021/08/26 01:10:24;;;;;;;8.48;7.25;;;;;;;;;;4463784;32;20225;-50
2021/08/26 01:12:53;;;;;;;8.50;6.25;;;;;;;;;;4464351;32;20719;-52
2021/08/26 01:15:19;;;;;;;8.55;5.75;;;;;;;;;;4464020;32;20208;-51
2021/08/26 01:17:46;;;;;;;10.73;6.65;;;;;;;;;;4462835;32;20795;-51
2021/08/26 01:20:13;;;;;;;15.20;7.28;;;;;;;;;;4463946;32;20279;-51
2021/08/26 01:22:38;;;;;;;7.82;6.22;;;;;;;;;;4463415;32;20284;-51
2021/08/26 01:25:16;;;;;;;8.18;6.10;;;;;;;;;;4461711;32;20299;-51
2021/08/26 01:28:18;;;;;;;10.02;6.72;;;;;;;;;;4448912;32;20192;-52
2021/08/26 01:30:44;;;;;;;11.23;7.18;;;;;;;;;;4459779;32;20318;-53
2021/08/26 01:33:09;;;;;;;12.13;7.12;;;;;;;;;;4464067;32;20322;-52
2021/08/26 01:35:35;;;;;;;9.50;6.40;;;;;;;;;;4458703;32;20297;-51
2021/08/26 01:38:01;;;;;;;8.20;6.32;;;;;;;;;;4464460;32;20317;-51
2021/08/26 01:40:42;;;;;;;7.70;5.60;;;;;;;;;;4463238;32;20307;-52
2021/08/26 01:43:12;;;;;;;9.63;6.80;;;;;;;;;;4460071;32;20269;-51
2021/08/26 01:45:45;;;;;;;9.35;6.12;;;;;;;;;;4460471;32;20246;-51
2021/08/26 01:48:12;;;;;;;9.75;7.07;;;;;;;;;;4452956;32;20228;-51
2021/08/26 01:50:37;;;;;;;7.47;6.05;;;;;;;;;;4463102;32;20263;-51
2021/08/26 01:53:04;;;;;;;11.10;7.07;;;;;;;;;;4463492;32;20358;-51
2021/08/26 01:55:30;;;;;;;12.18;6.47;;;;;;;;;;4449967;32;20290;-51
2021/08/26 01:57:55;;;;;;;9.40;6.53;;;;;;;;;;4463549;32;20275;-51
2021/08/26 02:00:21;;;;;;;8.90;7.68;;;;;;;;;;4462961;32;20208;-51
2021/08/26 02:02:46;;;;;;;8.60;6.60;;;;;;;;;;4462819;32;20263;-51
2021/08/26 02:05:12;;;;;;;10.93;7.70;;;;;;;;;;4451724;32;20227;-52
2021/08/26 02:07:37;;;;;;;10.80;7.07;;;;;;;;;;4461618;32;20270;-51
2021/08/26 02:10:04;;;;;;;8.80;6.93;;;;;;;;;;4457037;32;20310;-51
2021/08/26 02:12:29;;;;;;;10.77;7.75;;;;;;;;;;4466202;32;20295;-52
2021/08/26 02:14:55;;;;;;;10.63;7.78;;;;;;;;;;4456593;32;20228;-51
2021/08/26 02:17:21;;;;;;;19.67;9.02;;;;;;;;;;4463046;32;20641;-51
2021/08/26 02:19:47;;;;;;;15.18;10.13;;;;;;;;;;4465479;32;20248;-51
2021/08/26 02:22:13;;;;;;;13.30;7.55;;;;;;;;;;4464997;32;20580;-51
2021/08/26 02:24:38;;;;;;;11.32;8.40;;;;;;;;;;4466061;32;20259;-51
2021/08/26 02:27:03;;;;;;;11.05;8.65;;;;;;;;;;4466758;32;20307;-51
2021/08/26 02:29:29;;;;;;;10.60;7.82;;;;;;;;;;4466254;32;20318;-52
2021/08/26 02:31:54;;;;;;;13.07;8.73;;;;;;;;;;4466457;32;20220;-52
2021/08/26 02:34:20;;;;;;;11.23;7.87;;;;;;;;;;4466434;32;20215;-51
2021/08/26 02:36:45;;;;;;;10.95;8.88;;;;;;;;;;4458042;32;20204;-52
2021/08/26 02:39:11;;;;;;;9.43;7.60;;;;;;;;;;4448229;32;20351;-51
2021/08/26 02:41:37;;;;;;;9.95;7.55;;;;;;;;;;4450134;32;20507;-52
2021/08/26 02:44:03;;;;;;;12.40;7.57;;;;;;;;;;4465509;32;20227;-51
2021/08/26 02:46:29;;;;;;;9.10;6.65;;;;;;;;;;4461725;32;20239;-52
2021/08/26 02:48:54;;;;;;;9.93;6.78;;;;;;;;;;4450718;32;20308;-51
2021/08/26 02:51:20;;;;;;;12.00;6.90;;;;;;;;;;4450769;32;20240;-52
2021/08/26 02:53:45;;;;;;;10.50;7.43;;;;;;;;;;4450768;32;20764;-52
2021/08/26 02:56:11;;;;;;;9.52;7.43;;;;;;;;;;4448922;32;20256;-52
2021/08/26 02:58:36;;;;;;;10.00;7.53;;;;;;;;;;4450678;32;20256;-51
2021/08/26 03:01:02;;;;;;;10.13;7.40;;;;;;;;;;4450874;32;20637;-52
2021/08/26 03:03:27;;;;;;;11.27;7.85;;;;;;;;;;4450447;32;20270;-51
2021/08/26 03:05:53;;;;;;;8.95;6.50;;;;;;;;;;4464952;32;20204;-52
2021/08/26 03:08:18;;;;;;;16.23;8.10;;;;;;;;;;4466332;32;20223;-51
2021/08/26 03:10:44;;;;;;;11.43;7.72;;;;;;;;;;4463795;32;20286;-52
2021/08/26 03:13:10;;;;;;;12.80;8.32;;;;;;;;;;4449939;32;20224;-52
2021/08/26 03:15:35;;;;;;;11.43;7.53;;;;;;;;;;4450397;32;20719;-51
2021/08/26 03:18:01;;;;;;;11.43;7.40;;;;;;;;;;4458470;32;20640;-51
2021/08/26 03:20:26;;;;;;;9.80;6.95;;;;;;;;;;4465671;32;20338;-51
2021/08/26 03:22:52;;;;;;;12.63;9.07;;;;;;;;;;4465524;32;20219;-52
2021/08/26 03:25:18;;;;;;;10.35;6.90;;;;;;;;;;4465501;32;20238;-52
2021/08/26 03:27:44;;;;;;;11.50;7.75;;;;;;;;;;4464395;32;20499;-52
2021/08/26 03:30:10;;;;;;;8.73;6.97;;;;;;;;;;4465655;32;20268;-52
2021/08/26 03:32:36;;;;;;;9.98;7.62;;;;;;;;;;4465315;32;20239;-52
2021/08/26 03:35:01;;;;;;;10.63;7.32;;;;;;;;;;4460164;32;20645;-52
2021/08/26 03:37:27;;;;;;;14.25;7.82;;;;;;;;;;4449860;32;20684;-52
2021/08/26 03:39:52;;;;;;;14.35;7.97;;;;;;;;;;4448962;32;20298;-52
2021/08/26 03:42:18;;;;;;;11.05;7.28;;;;;;;;;;4450125;32;20216;-53
2021/08/26 03:44:43;;;;;;;9.70;8.10;;;;;;;;;;4449953;32;20276;-52
2021/08/26 03:47:09;;;;;;;11.52;8.15;;;;;;;;;;4449636;32;20225;-52
2021/08/26 03:49:35;;;;;;;11.68;7.93;;;;;;;;;;4449629;32;20807;-52
2021/08/26 03:52:02;;;;;;;10.98;7.20;;;;;;;;;;4449835;32;20231;-52
2021/08/26 03:54:28;;;;;;;9.73;6.85;;;;;;;;;;4449877;32;20285;-52
2021/08/26 03:56:53;;;;;;;11.32;6.40;;;;;;;;;;4449911;32;20249;-52
2021/08/26 03:59:19;;;;;;;10.90;6.32;;;;;;;;;;4448799;32;20236;-52
2021/08/26 04:01:44;;;;;;;10.05;6.72;;;;;;;;;;4449818;32;20299;-53
2021/08/26 04:04:10;;;;;;;11.32;7.47;;;;;;;;;;4449975;32;20239;-51
2021/08/26 04:06:35;;;;;;;10.05;7.68;;;;;;;;;;4450017;32;20674;-52
2021/08/26 04:09:01;;;;;;;9.82;6.90;;;;;;;;;;4465288;32;20351;-52
2021/08/26 04:11:26;;;;;;;8.13;6.28;;;;;;;;;;4461591;32;20200;-52
2021/08/26 04:13:52;;;;;;;9.90;6.43;;;;;;;;;;4457805;32;20228;-52
2021/08/26 04:16:17;;;;;;;18.55;5.65;;;;;;;;;;4465392;32;20220;-52
2021/08/26 04:18:43;;;;;;;8.98;6.53;;;;;;;;;;4464694;32;20242;-52
2021/08/26 04:21:09;;;;;;;9.98;6.87;;;;;;;;;;4465470;32;20227;-52
2021/08/26 04:23:34;;;;;;;7.40;5.72;;;;;;;;;;4465110;32;20244;-52
2021/08/26 04:26:00;;;;;;;8.73;6.40;;;;;;;;;;4463684;32;20259;-52
2021/08/26 04:28:25;;;;;;;9.57;5.65;;;;;;;;;;4465361;32;20228;-52
2021/08/26 04:30:51;;;;;;;9.90;6.57;;;;;;;;;;4464317;32;20204;-52
2021/08/26 04:33:16;;;;;;;11.05;7.05;;;;;;;;;;4463568;32;20569;-52
2021/08/26 04:35:42;;;;;;;9.93;6.40;;;;;;;;;;4464811;32;20283;-52
2021/08/26 04:38:07;;;;;;;9.77;6.50;;;;;;;;;;4464852;32;20275;-52
2021/08/26 04:40:33;;;;;;;9.07;7.03;;;;;;;;;;4464372;32;20306;-52
2021/08/26 04:42:58;;;;;;;11.88;7.00;;;;;;;;;;4464912;32;20645;-52
2021/08/26 04:45:24;;;;;;;11.25;7.50;;;;;;;;;;4464702;32;20313;-52
2021/08/26 04:47:49;;;;;;;8.38;7.32;;;;;;;;;;4450269;32;20291;-52
2021/08/26 04:50:15;;;;;;;10.93;7.70;;;;;;;;;;4447851;32;20262;-52
2021/08/26 04:52:40;;;;;;;14.75;8.82;;;;;;;;;;4449106;32;20241;-52
2021/08/26 04:55:06;;;;;;;13.48;9.05;;;;;;;;;;4449021;32;20271;-52
2021/08/26 04:57:32;;;;;;;11.95;9.10;;;;;;;;;;4447867;32;20244;-52
2021/08/26 04:59:57;;;;;;;10.38;7.93;;;;;;;;;;4449003;32;20212;-51
2021/08/26 05:02:23;;;;;;;18.17;8.93;;;;;;;;;;4455891;32;20212;-52
2021/08/26 05:04:48;;;;;;;12.88;7.53;;;;;;;;;;4464404;32;20274;-51
2021/08/26 05:07:14;;;;;;;9.93;8.05;;;;;;;;;;4464389;32;20283;-51
2021/08/26 05:09:39;;;;;;;11.85;9.45;;;;;;;;;;4463806;32;20280;-51
2021/08/26 05:12:06;;;;;;;9.85;8.35;;;;;;;;;;4464359;32;20309;-52
2021/08/26 05:14:32;;;;;;;9.95;7.53;;;;;;;;;;4464244;32;20228;-51
2021/08/26 05:16:58;;;;;;;12.30;8.25;;;;;;;;;;4464092;32;20439;-51
2021/08/26 05:19:24;;;;;;;18.58;10.05;;;;;;;;;;4463794;32;20258;-51
2021/08/26 05:21:50;;;;;;;19.98;8.13;;;;;;;;;;4463944;32;20220;-51
2021/08/26 05:24:15;;;;;;;14.23;8.80;;;;;;;;;;4463790;32;20267;-52
2021/08/26 05:26:41;;;;;;;13.35;7.37;;;;;;;;;;4463943;32;20601;-52
2021/08/26 05:29:06;;;;;;;12.88;7.53;;;;;;;;;;4463808;32;20282;-53
2021/08/26 05:31:32;;;;;;;11.50;8.10;;;;;;;;;;4463711;32;20622;-52
2021/08/26 05:33:57;;;;;;;13.05;8.82;;;;;;;;;;4463998;32;20767;-51
2021/08/26 05:36:23;;;;;;;11.25;7.62;;;;;;;;;;4463594;32;20674;-51
2021/08/26 05:38:48;;;;;;;17.55;8.57;;;;;;;;;;4463329;32;20580;-52
2021/08/26 05:41:14;;;;;;;8.07;6.85;;;;;;;;;;4462659;32;20647;-52
2021/08/26 05:43:39;;;;;;;12.93;7.35;;;;;;;;;;4448303;32;20243;-52
2021/08/26 05:46:05;;;;;;;9.75;7.35;;;;;;;;;;4449858;32;20353;-52
2021/08/26 05:48:31;;;;;;;10.27;7.57;;;;;;;;;;4452171;32;20639;-52
2021/08/26 05:50:57;;;;;;;16.02;7.80;;;;;;;;;;4447992;32;20220;-52
2021/08/26 05:53:22;;;;;;;12.30;8.43;;;;;;;;;;4448340;32;20279;-52
2021/08/26 05:55:48;;;;;;;10.60;7.43;;;;;;;;;;4447911;32;20240;-52
2021/08/26 05:58:14;;;;;;;13.32;8.55;;;;;;;;;;4447910;32;20302;-52
2021/08/26 06:00:39;;;;;;;12.75;9.05;;;;;;;;;;4447950;32;20595;-52
2021/08/26 06:03:05;;;;;;;11.25;8.85;;;;;;;;;;4459329;32;20305;-52
2021/08/26 06:05:30;;;;;;;9.75;8.23;;;;;;;;;;4463451;32;20224;-52
2021/08/26 06:07:56;;;;;;;10.75;8.43;;;;;;;;;;4456478;32;20687;-51
2021/08/26 06:10:21;;;;;;;17.12;8.73;;;;;;;;;;4453144;32;20239;-51
2021/08/26 06:12:47;;;;;;;10.13;8.02;;;;;;;;;;4454517;32;20291;-51
2021/08/26 06:15:13;;;;;;;9.93;8.45;;;;;;;;;;4454561;32;20682;-52
2021/08/26 06:17:39;;;;;;;15.65;9.20;;;;;;;;;;4453082;32;20680;-51
2021/08/26 06:20:07;;;;;;;14.40;9.35;;;;;;;;;;4454679;32;20351;-52
2021/08/26 06:22:32;;;;;;;12.45;8.77;;;;;;;;;;4449005;32;20238;-51
2021/08/26 06:24:58;;;;;;;13.18;9.23;;;;;;;;;;4433375;32;20244;-52
2021/08/26 06:27:23;;;;;;;10.57;8.35;;;;;;;;;;4432987;32;20275;-52
2021/08/26 06:29:49;;;;;;;10.70;8.35;;;;;;;;;;4440706;32;20221;-52
2021/08/26 06:32:14;;;;;;;11.20;8.15;;;;;;;;;;4448101;32;20317;-52
2021/08/26 06:34:40;;;;;;;13.23;9.48;;;;;;;;;;4446226;32;20272;-52
2021/08/26 06:37:05;;;;;;;10.25;8.68;;;;;;;;;;4448175;32;20278;-53
2021/08/26 06:39:31;;;;;;;10.82;8.90;;;;;;;;;;4447824;32;20573;-52
2021/08/26 06:41:56;;;;;;;14.35;8.90;;;;;;;;;;4448781;32;20311;-52
2021/08/26 06:44:22;;;;;;;14.32;9.65;;;;;;;;;;4448200;32;20268;-52
2021/08/26 06:46:48;;;;;;;13.82;9.15;;;;;;;;;;4447629;32;20254;-52
2021/08/26 06:49:14;;;;;;;13.20;8.25;;;;;;;;;;4447112;32;20604;-52
2021/08/26 06:51:39;;;;;;;13.32;9.98;;;;;;;;;;4447488;32;20255;-52
2021/08/26 06:54:05;;;;;;;11.82;8.95;;;;;;;;;;4449037;32;20330;-53
2021/08/26 06:56:30;;;;;;;15.32;9.45;;;;;;;;;;4450874;32;20699;-52
2021/08/26 06:58:56;;;;;;;17.48;11.05;;;;;;;;;;4450634;32;20239;-52
2021/08/26 07:01:21;;;;;;;12.23;10.07;;;;;;;;;;4435655;32;20328;-52
2021/08/26 07:03:46;;;;;;;12.48;9.35;;;;;;;;;;4449950;32;20213;-52
2021/08/26 07:06:14;;;;;;;14.60;10.10;;;;;;;;;;4450122;32;20585;-52
2021/08/26 07:08:39;;;;;;;13.73;10.00;;;;;;;;;;4448509;32;20590;-52
2021/08/26 07:11:05;;;;;;;16.08;10.98;;;;;;;;;;4447956;32;20340;-54
2021/08/26 07:13:30;;;;;;;27.27;12.43;;;;;;;;;;4448642;32;20254;-52
2021/08/26 07:15:56;;;;;;;20.20;12.32;;;;;;;;;;4448202;32;20256;-52
2021/08/26 07:18:24;;;;;;;18.02;12.50;;;;;;;;;;4444200;32;20329;-52
2021/08/26 07:20:49;;;;;;;24.60;13.20;;;;;;;;;;4450848;32;20289;-53
2021/08/26 07:23:15;;;;;;;14.98;10.50;;;;;;;;;;4465400;32;20579;-53
2021/08/26 07:25:41;;;;;;;22.23;14.98;;;;;;;;;;4465738;32;20568;-52
2021/08/26 07:28:06;;;;;;;23.77;12.52;;;;;;;;;;4465416;32;20279;-52
2021/08/26 07:30:32;;;;;;;21.23;11.55;;;;;;;;;;4464344;32;20224;-52
2021/08/26 07:32:58;;;;;;;16.75;11.15;;;;;;;;;;4454288;32;20692;-53
2021/08/26 07:35:23;;;;;;;15.65;10.25;;;;;;;;;;4456226;32;20692;-52
2021/08/26 07:37:48;;;;;;;16.80;11.18;;;;;;;;;;4449768;32;20275;-53
2021/08/26 07:40:14;;;;;;;15.18;10.43;;;;;;;;;;4449454;32;20307;-52
2021/08/26 07:42:40;;;;;;;25.37;11.48;;;;;;;;;;4450054;32;20351;-51
2021/08/26 07:45:07;;;;;;;17.25;11.23;;;;;;;;;;4449215;32;20231;-52
2021/08/26 07:47:32;;;;;;;27.08;15.40;;;;;;;;;;4451832;32;20212;-53
2021/08/26 07:49:58;;;;;;;19.12;12.30;;;;;;;;;;4469048;32;20774;-52
2021/08/26 07:52:24;;;;;;;23.15;12.37;;;;;;;;;;4465382;32;20754;-52
2021/08/26 07:54:49;;;;;;;20.77;14.48;;;;;;;;;;4465230;32;20246;-53
2021/08/26 07:57:15;;;;;;;26.37;15.68;;;;;;;;;;4465748;32;20286;-52
2021/08/26 07:59:40;;;;;;;19.95;13.75;;;;;;;;;;4464937;32;20252;-52
2021/08/26 08:02:09;;;;;;;15.20;11.10;;;;;;;;;;4466938;32;20333;-52
2021/08/26 08:04:34;;;;;;;18.33;13.23;;;;;;;;;;4467518;32;20317;-53
2021/08/26 08:07:00;;;;;;;15.43;11.82;;;;;;;;;;4469329;32;20220;-53
2021/08/26 08:09:26;;;;;;;14.55;10.85;;;;;;;;;;4453118;32;20284;-53
2021/08/26 08:11:52;;;;;;;19.23;12.00;;;;;;;;;;4455750;32;20603;-52
2021/08/26 08:14:17;;;;;;;17.95;12.50;;;;;;;;;;4462036;32;20278;-51
2021/08/26 08:16:43;;;;;;;16.70;11.68;;;;;;;;;;4466867;32;20577;-53
2021/08/26 08:19:09;;;;;;;14.73;10.65;;;;;;;;;;4465586;32;20242;-52
2021/08/26 08:21:34;;;;;;;25.17;16.23;;;;;;;;;;4464176;32;20703;-52
2021/08/26 08:24:00;;;;;;;21.55;12.40;;;;;;;;;;4464656;32;20557;-53
2021/08/26 08:26:25;;;;;;;18.12;11.12;;;;;;;;;;4465169;32;20219;-53
2021/08/26 08:28:51;;;;;;;16.90;11.40;;;;;;;;;;4460702;32;20263;-52
2021/08/26 08:31:17;;;;;;;15.25;11.63;;;;;;;;;;4463845;32;20653;-53
2021/08/26 08:33:46;;;;;;;16.70;11.20;;;;;;;;;;4464700;32;20236;-53
2021/08/26 08:36:12;;;;;;;18.90;12.68;;;;;;;;;;4465039;32;20228;-52
2021/08/26 08:38:38;;;;;;;25.50;11.95;;;;;;;;;;4461154;32;20343;-52
2021/08/26 08:41:03;;;;;;;19.62;12.50;;;;;;;;;;4448439;32;20252;-53
2021/08/26 08:43:29;;;;;;;22.83;14.45;;;;;;;;;;4447858;32;20605;-52
2021/08/26 08:45:55;;;;;;;23.90;13.93;;;;;;;;;;4446936;32;20350;-53
2021/08/26 08:48:23;;;;;;;23.15;15.95;;;;;;;;;;4447012;32;20375;-53
2021/08/26 08:50:49;;;;;;;26.15;17.60;;;;;;;;;;4447566;32;20680;-53
2021/08/26 08:53:16;;;;;;;21.30;13.80;;;;;;;;;;4447339;32;20295;-52
2021/08/26 08:55:43;;;;;;;19.40;12.95;;;;;;;;;;4452700;32;20215;-52
2021/08/26 08:58:09;;;;;;;23.15;13.88;;;;;;;;;;4463910;32;20269;-53
2021/08/26 09:00:35;;;;;;;18.62;14.13;;;;;;;;;;4464128;32;20330;-52
2021/08/26 09:03:01;;;;;;;18.83;12.65;;;;;;;;;;4464360;32;20216;-53
2021/08/26 09:05:50;;;;;;;18.42;12.65;;;;;;;;;;4464456;32;20248;-52
2021/08/26 09:08:16;;;;;;;14.32;11.52;;;;;;;;;;4464342;32;20208;-53
2021/08/26 09:10:42;;;;;;;15.90;12.27;;;;;;;;;;4464114;32;20303;-53
2021/08/26 09:13:08;;;;;;;19.50;12.10;;;;;;;;;;4451257;32;20314;-52
2021/08/26 09:15:34;;;;;;;16.27;11.45;;;;;;;;;;4448497;32;20302;-52
2021/08/26 09:18:18;;;;;;;18.10;11.82;;;;;;;;;;4462904;32;20247;-54
2021/08/26 09:20:50;;;;;;;21.17;13.45;;;;;;;;;;4463971;32;20387;-52
2021/08/26 09:23:15;;;;;;;17.58;13.07;;;;;;;;;;4463577;32;20309;-53
2021/08/26 09:25:42;;;;;;;17.95;13.82;;;;;;;;;;4463136;32;20232;-53
2021/08/26 09:28:25;;;;;;;19.33;13.75;;;;;;;;;;4464288;32;20242;-53
2021/08/26 09:31:27;;;;;;;24.60;16.12;;;;;;;;;;4458161;32;20264;-54
2021/08/26 09:33:53;;;;;;;18.55;13.88;;;;;;;;;;4457739;32;20553;-52
2021/08/26 09:36:30;;;;;;;20.42;14.30;;;;;;;;;;4460320;32;20433;-52
2021/08/26 09:38:57;;;;;;;21.23;14.95;;;;;;;;;;4459318;32;20823;-54
2021/08/26 09:41:43;;;;;;;20.75;14.15;;;;;;;;;;4450035;32;20251;-53
2021/08/26 09:44:13;;;;;;;15.75;12.65;;;;;;;;;;4462481;32;20238;-53
2021/08/26 09:46:39;;;;;;;22.50;13.18;;;;;;;;;;4457485;32;20359;-53
2021/08/26 09:49:07;;;;;;;22.75;14.07;;;;;;;;;;4456947;32;20415;-52
2021/08/26 09:51:34;;;;;;;18.55;14.30;;;;;;;;;;4455134;32;20212;-52
2021/08/26 09:54:00;;;;;;;23.23;14.38;;;;;;;;;;4457600;32;20692;-52
2021/08/26 09:56:46;;;;;;;14.50;11.95;;;;;;;;;;4463082;32;20242;-54
2021/08/26 09:59:11;;;;;;;18.95;13.30;;;;;;;;;;4458143;32;20298;-52
2021/08/26 10:01:38;;;;;;;17.23;12.98;;;;;;;;;;4462049;32;20219;-52
2021/08/26 10:04:26;;;;;;;17.20;13.75;;;;;;;;;;4464123;32;20211;-52
2021/08/26 10:06:51;;;;;;;17.58;14.73;;;;;;;;;;4458425;32;20224;-52
2021/08/26 10:09:17;;;;;;;21.17;15.18;;;;;;;;;;4462066;32;20306;-51
2021/08/26 10:11:43;;;;;;;21.02;15.50;;;;;;;;;;4462262;32;20650;-52
2021/08/26 10:14:10;;;;;;;21.83;14.75;;;;;;;;;;4463048;32;20315;-53
2021/08/26 10:16:40;;;;;;;23.95;15.43;;;;;;;;;;4461255;32;20573;-52
2021/08/26 10:19:07;;;;;;;18.77;14.85;;;;;;;;;;4463175;32;20538;-52
2021/08/26 10:21:32;;;;;;;24.58;14.13;;;;;;;;;;4462610;32;20236;-52
2021/08/26 10:23:58;;;;;;;20.77;14.38;;;;;;;;;;4462181;32;20369;-52
2021/08/26 10:26:25;;;;;;;21.60;14.32;;;;;;;;;;4462705;32;20699;-53
2021/08/26 10:28:52;;;;;;;20.02;14.55;;;;;;;;;;4450972;32;20364;-52
2021/08/26 10:31:32;;;;;;;21.52;15.80;;;;;;;;;;4465293;32;20228;-53
2021/08/26 10:34:12;;;;;;;20.30;14.30;;;;;;;;;;4463604;32;20219;-53
2021/08/26 10:36:54;;;;;;;20.25;12.50;;;;;;;;;;4465886;32;20217;-53
2021/08/26 10:39:41;;;;;;;18.10;13.68;;;;;;;;;;4466159;32;20235;-53
2021/08/26 10:42:23;;;;;;;22.95;13.68;;;;;;;;;;4466064;32;20258;-53
2021/08/26 10:45:08;;;;;;;19.17;14.05;;;;;;;;;;4458344;32;20259;-53
2021/08/26 10:47:57;;;;;;;16.48;10.98;;;;;;;;;;4463056;32;20244;-52
2021/08/26 10:50:38;;;;;;;18.48;13.18;;;;;;;;;;4446775;32;20288;-52
2021/08/26 10:53:25;;;;;;;19.17;12.80;;;;;;;;;;4460188;32;20248;-52
2021/08/26 10:55:52;;;;;;;22.73;14.68;;;;;;;;;;4460928;32;20215;-52
2021/08/26 11:01:01;;;;;;;18.92;12.60;;;;;;;;;;4465771;32;20228;-52
2021/08/26 11:03:32;;;;;;;21.37;14.27;;;;;;;;;;4464650;32;20272;-52
2021/08/26 11:06:22;;;;;;;16.75;13.48;;;;;;;;;;4465779;32;20262;-52
2021/08/26 11:08:52;;;;;;;19.12;13.00;;;;;;;;;;4465333;32;20220;-53
2021/08/26 11:11:32;;;;;;;17.05;13.35;;;;;;;;;;4466266;32;20246;-52
2021/08/26 11:14:03;;;;;;;16.33;11.82;;;;;;;;;;4466223;32;20624;-52
2021/08/26 11:16:29;;;;;;;21.35;12.48;;;;;;;;;;4465488;32;20862;-52
2021/08/26 11:19:16;;;;;;;13.43;11.27;;;;;;;;;;4465122;32;20828;-52
2021/08/26 11:21:42;;;;;;;14.52;11.32;;;;;;;;;;4464580;32;20418;-52
2021/08/26 11:24:08;;;;;;;17.75;12.30;;;;;;;;;;4465329;32;20699;-52
2021/08/26 11:26:52;;;;;;;14.55;10.68;;;;;;;;;;4465757;32;20246;-53
2021/08/26 11:29:17;;;;;;;13.30;9.75;;;;;;;;;;4465100;32;20216;-52
2021/08/26 11:32:00;;;;;;;18.10;11.60;;;;;;;;;;4465483;32;20680;-52
2021/08/26 11:34:33;;;;;;;13.98;10.10;;;;;;;;;;4464530;32;20283;-52
2021/08/26 11:36:58;;;;;;;12.80;9.65;;;;;;;;;;4465149;32;20267;-52
2021/08/26 11:39:25;;;;;;;14.20;9.90;;;;;;;;;;4464915;32;20590;-52
2021/08/26 11:41:51;;;;;;;12.05;10.65;;;;;;;;;;4465642;32;20641;-52
2021/08/26 11:44:16;;;;;;;11.05;8.13;;;;;;;;;;4465576;32;20275;-52
2021/08/26 11:46:42;;;;;;;14.63;10.02;;;;;;;;;;4464958;32;20644;-53
2021/08/26 11:49:08;;;;;;;15.18;10.90;;;;;;;;;;4465238;32;20208;-52
2021/08/26 11:51:33;;;;;;;13.48;11.50;;;;;;;;;;4464792;32;20262;-52
2021/08/26 11:54:16;;;;;;;15.93;11.55;;;;;;;;;;4462875;32;20310;-52
2021/08/26 11:56:48;;;;;;;13.00;9.57;;;;;;;;;;4464737;32;20285;-52
2021/08/26 11:59:35;;;;;;;16.42;10.30;;;;;;;;;;4464410;32;20236;-52
2021/08/26 12:02:20;;;;;;;14.73;10.32;;;;;;;;;;4464560;32;20272;-52
2021/08/26 12:04:57;;;;;;;16.67;9.52;;;;;;;;;;4464829;32;20278;-52
2021/08/26 12:07:36;;;;;;;15.27;10.45;;;;;;;;;;4464370;32;20200;-52
2021/08/26 12:10:32;;;;;;;15.07;9.77;;;;;;;;;;4464615;32;20667;-52
2021/08/26 12:13:04;;;;;;;12.15;8.52;;;;;;;;;;4450898;32;20689;-52
2021/08/26 12:15:36;;;;;;;15.30;10.20;;;;;;;;;;4464919;32;20228;-52
2021/08/26 12:18:26;;;;;;;13.07;9.23;;;;;;;;;;4463079;32;20711;-53
2021/08/26 12:21:05;;;;;;;11.82;10.27;;;;;;;;;;4458855;32;20248;-52
2021/08/26 12:23:33;;;;;;;14.95;10.63;;;;;;;;;;4464524;32;20239;-52
2021/08/26 12:26:05;;;;;;;15.40;9.45;;;;;;;;;;4464429;32;20777;-52
2021/08/26 12:28:36;;;;;;;14.32;10.10;;;;;;;;;;4465002;32;20559;-52
2021/08/26 12:31:07;;;;;;;15.90;9.23;;;;;;;;;;4449465;32;20217;-52
2021/08/26 12:33:33;;;;;;;10.55;9.45;;;;;;;;;;4462545;32;20328;-52
2021/08/26 12:35:59;;;;;;;18.77;10.32;;;;;;;;;;4464899;32;20231;-52
2021/08/26 12:38:40;;;;;;;15.23;10.32;;;;;;;;;;4463761;32;20479;-52
2021/08/26 12:41:08;;;;;;;12.70;8.88;;;;;;;;;;4456986;32;20306;-52
2021/08/26 12:43:45;;;;;;;12.48;9.15;;;;;;;;;;4463988;32;20325;-52
2021/08/26 12:46:16;;;;;;;12.05;9.02;;;;;;;;;;4464191;32;20564;-52
2021/08/26 12:48:42;;;;;;;15.05;9.60;;;;;;;;;;4463604;32;20228;-52
2021/08/26 12:51:34;;;;;;;12.27;9.07;;;;;;;;;;4464162;32;20223;-53
2021/08/26 12:54:03;;;;;;;11.93;7.82;;;;;;;;;;4451256;32;20225;-52
2021/08/26 12:56:47;;;;;;;11.18;8.07;;;;;;;;;;4463487;32;20254;-53
2021/08/26 12:59:14;;;;;;;11.93;8.27;;;;;;;;;;4463905;32;20268;-53
2021/08/26 13:01:44;;;;;;;9.40;7.45;;;;;;;;;;4464505;32;20243;-53
2021/08/26 13:04:23;;;;;;;10.15;7.40;;;;;;;;;;4463746;32;20281;-53
2021/08/26 13:06:53;;;;;;;9.50;7.45;;;;;;;;;;4464430;32;20278;-52
2021/08/26 13:09:38;;;;;;;13.32;8.63;;;;;;;;;;4464380;32;20215;-53
2021/08/26 13:12:06;;;;;;;7.82;6.68;;;;;;;;;;4463105;32;20605;-52
2021/08/26 13:14:40;;;;;;;8.05;5.80;;;;;;;;;;4464094;32;20236;-53
2021/08/26 13:17:12;;;;;;;10.35;6.30;;;;;;;;;;4463377;32;20294;-52
2021/08/26 13:19:59;;;;;;;8.55;6.75;;;;;;;;;;4456532;32;20239;-52
2021/08/26 13:22:34;;;;;;;10.85;7.62;;;;;;;;;;4462933;32;20351;-53
2021/08/26 13:25:08;;;;;;;7.68;6.55;;;;;;;;;;4450709;32;20220;-52
2021/08/26 13:27:36;;;;;;;8.13;6.53;;;;;;;;;;4459828;32;20280;-52
2021/08/26 13:30:05;;;;;;;9.65;7.60;;;;;;;;;;4463034;32;20229;-52
2021/08/26 13:32:30;;;;;;;9.52;6.87;;;;;;;;;;4463747;32;20212;-52
2021/08/26 13:34:56;;;;;;;9.23;7.15;;;;;;;;;;4459001;32;20242;-52
2021/08/26 13:37:21;;;;;;;9.30;6.53;;;;;;;;;;4454696;32;20593;-53
2021/08/26 13:39:47;;;;;;;11.98;7.25;;;;;;;;;;4459439;32;20239;-52
2021/08/26 13:42:13;;;;;;;9.93;7.07;;;;;;;;;;4463829;32;20287;-53
2021/08/26 13:44:39;;;;;;;10.77;5.93;;;;;;;;;;4463469;32;20212;-52
2021/08/26 13:47:05;;;;;;;10.80;7.72;;;;;;;;;;4462686;32;20283;-52
2021/08/26 13:49:31;;;;;;;8.82;6.53;;;;;;;;;;4462171;32;20243;-52
2021/08/26 13:51:56;;;;;;;8.52;7.07;;;;;;;;;;4462913;32;20227;-52
2021/08/26 13:54:22;;;;;;;7.85;6.68;;;;;;;;;;4461365;32;20678;-52
2021/08/26 13:56:49;;;;;;;7.90;6.22;;;;;;;;;;4462087;32;20267;-52
2021/08/26 13:59:15;;;;;;;11.52;6.97;;;;;;;;;;4463544;32;20456;-52
2021/08/26 14:01:40;;;;;;;6.80;5.53;;;;;;;;;;4461819;32;20234;-52
2021/08/26 14:04:06;;;;;;;9.60;6.72;;;;;;;;;;4450339;32;20592;-52
2021/08/26 14:06:32;;;;;;;8.43;4.10;;;;;;;;;;4458966;32;20223;-53
2021/08/26 14:08:59;;;;;;;6.20;3.50;;;;;;;;;;4465689;32;20624;-52
2021/08/26 14:11:25;;;;;;;6.85;3.35;;;;;;;;;;4463874;32;20427;-52
2021/08/26 14:13:50;;;;;;;10.73;3.83;;;;;;;;;;4465107;32;20252;-52
2021/08/26 14:16:16;;;;;;;7.30;3.33;;;;;;;;;;4466440;32;20207;-52
2021/08/26 14:18:43;;;;;;;6.10;3.60;;;;;;;;;;4466706;32;20250;-52
2021/08/26 14:21:09;;;;;;;6.53;3.42;;;;;;;;;;4466521;32;20275;-52
2021/08/26 14:23:34;;;;;;;5.87;3.12;;;;;;;;;;4466493;32;20767;-52
2021/08/26 14:26:01;;;;;;;3.40;2.78;;;;;;;;;;4465912;32;20295;-52
2021/08/26 14:28:26;;;;;;;4.75;3.25;;;;;;;;;;4464543;32;20220;-52
2021/08/26 14:30:52;;;;;;;4.75;2.90;;;;;;;;;;4466073;32;20262;-52
2021/08/26 14:33:17;;;;;;;4.82;3.67;;;;;;;;;;4466945;32;20643;-51
2021/08/26 14:35:43;;;;;;;4.37;3.45;;;;;;;;;;4466382;32;20719;-51
2021/08/26 14:38:09;;;;;;;17.80;3.75;;;;;;;;;;4466193;32;20639;-51
2021/08/26 14:40:36;;;;;;;6.45;3.65;;;;;;;;;;4466497;32;20343;-51